sensor_id;sensor_type;location;lat;lon;timestamp;pressure;altitude;pressure_sealevel;temperature;humidity
31082;BME280;17737;52.586;13.284;2023-08-08T00:00:48;100454.31;;;14.76;100.00
31082;BME280;17737;52.586;13.284;2023-08-08T00:03:16;100443.41;;;14.63;100.00
31082;BME280;17737;52.586;13.284;2023-08-08T00:05:44;100463.59;;;14.54;100.00
31082;BME280;17737;52.586;13.284;2023-08-08T00:08:12;100455.66;;;14.53;100.00
31082;BME280;17737;52.586;13.284;2023-08-08T00:10:40;100458.78;;;14.50;100.00
31082;BME280;17737;52.586;13.284;2023-08-08T00:13:08;100457.56;;;14.52;100.00
31082;BME280;17737;52.586;13.284;2023-08-08T00:15:38;100465.06;;;14.57;100.00
31082;BME280;17737;52.586;13.284;2023-08-08T00:18:06;100465.03;;;14.50;100.00
31082;BME280;17737;52.586;13.284;2023-08-08T00:20:34;100468.53;;;14.44;100.00
31082;BME280;17737;52.586;13.284;2023-08-08T00:23:02;100462.75;;;14.47;100.00
31082;BME280;17737;52.586;13.284;2023-08-08T00:25:31;100472.06;;;14.38;100.00
31082;BME280;17737;52.586;13.284;2023-08-08T00:27:59;100475.75;;;14.30;100.00
31082;BME280;17737;52.586;13.284;2023-08-08T00:30:27;100470.81;;;14.40;100.00
31082;BME280;17737;52.586;13.284;2023-08-08T00:32:56;100471.81;;;14.33;100.00
31082;BME280;17737;52.586;13.284;2023-08-08T00:35:24;100462.41;;;14.29;100.00
31082;BME280;17737;52.586;13.284;2023-08-08T00:37:52;100478.25;;;14.32;100.00
31082;BME280;17737;52.586;13.284;2023-08-08T00:40:20;100471.31;;;14.23;100.00
31082;BME280;17737;52.586;13.284;2023-08-08T00:42:48;100474.03;;;14.23;100.00
31082;BME280;17737;52.586;13.284;2023-08-08T00:45:16;100470.09;;;14.25;100.00
31082;BME280;17737;52.586;13.284;2023-08-08T00:47:44;100478.22;;;14.25;100.00
31082;BME280;17737;52.586;13.284;2023-08-08T00:50:14;100469.06;;;14.26;100.00
31082;BME280;17737;52.586;13.284;2023-08-08T00:52:44;100474.03;;;14.23;100.00
31082;BME280;17737;52.586;13.284;2023-08-08T00:55:13;100470.88;;;14.19;100.00
31082;BME280;17737;52.586;13.284;2023-08-08T00:57:41;100476.09;;;14.21;100.00
31082;BME280;17737;52.586;13.284;2023-08-08T01:00:10;100476.09;;;14.21;100.00
31082;BME280;17737;52.586;13.284;2023-08-08T01:02:39;100475.19;;;14.14;100.00
31082;BME280;17737;52.586;13.284;2023-08-08T01:05:08;100469.34;;;14.10;100.00
31082;BME280;17737;52.586;13.284;2023-08-08T01:07:41;100466.44;;;14.12;100.00
31082;BME280;17737;52.586;13.284;2023-08-08T01:10:17;100464.56;;;14.12;100.00
31082;BME280;17737;52.586;13.284;2023-08-08T01:12:52;100464.91;;;14.03;100.00
31082;BME280;17737;52.586;13.284;2023-08-08T01:15:25;100465.28;;;14.00;100.00
31082;BME280;17737;52.586;13.284;2023-08-08T01:17:55;100476.38;;;14.05;100.00
31082;BME280;17737;52.586;13.284;2023-08-08T01:20:24;100475.94;;;14.01;100.00
31082;BME280;17737;52.586;13.284;2023-08-08T01:23:04;100466.81;;;14.09;100.00
31082;BME280;17737;52.586;13.284;2023-08-08T01:25:40;100464.72;;;14.04;100.00
31082;BME280;17737;52.586;13.284;2023-08-08T01:28:09;100475.59;;;14.11;100.00
31082;BME280;17737;52.586;13.284;2023-08-08T01:30:37;100473.03;;;14.03;100.00
31082;BME280;17737;52.586;13.284;2023-08-08T01:33:07;100470.63;;;14.14;100.00
31082;BME280;17737;52.586;13.284;2023-08-08T01:35:38;100471.66;;;14.13;100.00
31082;BME280;17737;52.586;13.284;2023-08-08T01:38:11;100466.03;;;14.15;100.00
31082;BME280;17737;52.586;13.284;2023-08-08T01:40:46;100477.75;;;14.22;100.00
31082;BME280;17737;52.586;13.284;2023-08-08T01:43:14;100460.00;;;14.13;100.00
31082;BME280;17737;52.586;13.284;2023-08-08T01:45:43;100461.00;;;14.12;100.00
31082;BME280;17737;52.586;13.284;2023-08-08T01:48:12;100467.97;;;14.21;100.00
31082;BME280;17737;52.586;13.284;2023-08-08T01:50:40;100459.50;;;14.30;100.00
31082;BME280;17737;52.586;13.284;2023-08-08T01:53:08;100459.09;;;14.33;100.00
31082;BME280;17737;52.586;13.284;2023-08-08T01:55:36;100454.06;;;14.30;100.00
31082;BME280;17737;52.586;13.284;2023-08-08T01:58:06;100449.91;;;14.28;100.00
31082;BME280;17737;52.586;13.284;2023-08-08T02:00:34;100450.22;;;14.18;100.00
31082;BME280;17737;52.586;13.284;2023-08-08T02:03:03;100448.59;;;14.24;100.00
31082;BME280;17737;52.586;13.284;2023-08-08T02:05:32;100448.91;;;14.42;100.00
31082;BME280;17737;52.586;13.284;2023-08-08T02:08:00;100447.44;;;14.33;100.00
31082;BME280;17737;52.586;13.284;2023-08-08T02:10:28;100447.28;;;14.20;100.00
31082;BME280;17737;52.586;13.284;2023-08-08T02:12:56;100443.97;;;14.18;100.00
31082;BME280;17737;52.586;13.284;2023-08-08T02:15:25;100449.06;;;14.27;100.00
31082;BME280;17737;52.586;13.284;2023-08-08T02:17:53;100435.72;;;14.26;100.00
31082;BME280;17737;52.586;13.284;2023-08-08T02:20:21;100437.38;;;14.27;100.00
31082;BME280;17737;52.586;13.284;2023-08-08T02:22:49;100431.94;;;14.27;100.00
31082;BME280;17737;52.586;13.284;2023-08-08T02:25:17;100434.78;;;14.19;100.00
31082;BME280;17737;52.586;13.284;2023-08-08T02:27:45;100435.84;;;14.18;100.00
31082;BME280;17737;52.586;13.284;2023-08-08T02:30:14;100434.16;;;14.17;100.00
31082;BME280;17737;52.586;13.284;2023-08-08T02:32:43;100432.25;;;14.11;100.00
31082;BME280;17737;52.586;13.284;2023-08-08T02:35:11;100441.31;;;13.97;100.00
31082;BME280;17737;52.586;13.284;2023-08-08T02:37:39;100441.16;;;14.05;100.00
31082;BME280;17737;52.586;13.284;2023-08-08T02:40:08;100440.88;;;13.93;100.00
31082;BME280;17737;52.586;13.284;2023-08-08T02:42:37;100442.13;;;13.91;100.00
31082;BME280;17737;52.586;13.284;2023-08-08T02:45:06;100437.72;;;13.90;100.00
31082;BME280;17737;52.586;13.284;2023-08-08T02:47:34;100443.28;;;13.82;100.00
31082;BME280;17737;52.586;13.284;2023-08-08T02:50:05;100434.72;;;13.78;100.00
31082;BME280;17737;52.586;13.284;2023-08-08T02:52:33;100431.16;;;13.78;100.00
31082;BME280;17737;52.586;13.284;2023-08-08T02:55:01;100435.63;;;13.64;100.00
31082;BME280;17737;52.586;13.284;2023-08-08T02:57:29;100426.50;;;13.65;100.00
31082;BME280;17737;52.586;13.284;2023-08-08T02:59:57;100428.38;;;13.65;100.00
31082;BME280;17737;52.586;13.284;2023-08-08T03:02:26;100423.00;;;13.71;100.00
31082;BME280;17737;52.586;13.284;2023-08-08T03:04:54;100418.81;;;13.69;100.00
31082;BME280;17737;52.586;13.284;2023-08-08T03:07:23;100425.25;;;13.68;100.00
31082;BME280;17737;52.586;13.284;2023-08-08T03:09:51;100420.94;;;13.52;100.00
31082;BME280;17737;52.586;13.284;2023-08-08T03:12:19;100420.00;;;13.60;100.00
31082;BME280;17737;52.586;13.284;2023-08-08T03:14:47;100424.56;;;13.59;100.00
31082;BME280;17737;52.586;13.284;2023-08-08T03:17:15;100430.22;;;13.64;100.00
31082;BME280;17737;52.586;13.284;2023-08-08T03:19:44;100426.59;;;13.78;100.00
31082;BME280;17737;52.586;13.284;2023-08-08T03:22:12;100429.38;;;13.64;100.00
31082;BME280;17737;52.586;13.284;2023-08-08T03:24:41;100436.59;;;13.78;100.00
31082;BME280;17737;52.586;13.284;2023-08-08T03:27:09;100423.09;;;13.84;100.00
31082;BME280;17737;52.586;13.284;2023-08-08T03:29:37;100438.75;;;13.89;100.00
31082;BME280;17737;52.586;13.284;2023-08-08T03:32:06;100439.91;;;14.01;100.00
31082;BME280;17737;52.586;13.284;2023-08-08T03:34:34;100439.78;;;13.88;100.00
31082;BME280;17737;52.586;13.284;2023-08-08T03:37:03;100429.16;;;13.86;100.00
31082;BME280;17737;52.586;13.284;2023-08-08T03:39:31;100426.63;;;13.85;100.00
31082;BME280;17737;52.586;13.284;2023-08-08T03:42:01;100433.34;;;13.89;100.00
31082;BME280;17737;52.586;13.284;2023-08-08T03:44:29;100429.19;;;13.93;100.00
31082;BME280;17737;52.586;13.284;2023-08-08T03:46:57;100433.47;;;13.81;100.00
31082;BME280;17737;52.586;13.284;2023-08-08T03:49:44;100435.38;;;13.80;100.00
31082;BME280;17737;52.586;13.284;2023-08-08T03:52:12;100439.78;;;13.88;100.00
31082;BME280;17737;52.586;13.284;2023-08-08T03:54:40;100439.53;;;13.83;100.00
31082;BME280;17737;52.586;13.284;2023-08-08T03:57:10;100434.38;;;13.88;100.00
31082;BME280;17737;52.586;13.284;2023-08-08T03:59:38;100441.88;;;13.86;100.00
31082;BME280;17737;52.586;13.284;2023-08-08T04:02:06;100432.22;;;13.77;100.00
31082;BME280;17737;52.586;13.284;2023-08-08T04:04:34;100441.03;;;13.85;100.00
31082;BME280;17737;52.586;13.284;2023-08-08T04:07:02;100436.63;;;13.84;100.00
31082;BME280;17737;52.586;13.284;2023-08-08T04:09:30;100442.44;;;13.81;100.00
31082;BME280;17737;52.586;13.284;2023-08-08T04:11:59;100437.56;;;13.98;100.00
31082;BME280;17737;52.586;13.284;2023-08-08T04:14:29;100442.13;;;13.91;100.00
31082;BME280;17737;52.586;13.284;2023-08-08T04:16:57;100437.81;;;13.75;100.00
31082;BME280;17737;52.586;13.284;2023-08-08T04:19:25;100425.91;;;13.97;100.00
31082;BME280;17737;52.586;13.284;2023-08-08T04:21:53;100431.56;;;13.75;100.00
31082;BME280;17737;52.586;13.284;2023-08-08T04:24:21;100434.94;;;14.04;100.00
31082;BME280;17737;52.586;13.284;2023-08-08T04:26:49;100433.63;;;14.00;100.00
31082;BME280;17737;52.586;13.284;2023-08-08T04:29:17;100433.19;;;13.97;100.00
31082;BME280;17737;52.586;13.284;2023-08-08T04:31:49;100435.34;;;14.35;100.00
31082;BME280;17737;52.586;13.284;2023-08-08T04:34:18;100443.97;;;14.18;100.00
31082;BME280;17737;52.586;13.284;2023-08-08T04:36:46;100441.56;;;14.02;100.00
31082;BME280;17737;52.586;13.284;2023-08-08T04:39:14;100443.09;;;14.11;100.00
31082;BME280;17737;52.586;13.284;2023-08-08T04:41:42;100434.66;;;14.27;100.00
31082;BME280;17737;52.586;13.284;2023-08-08T04:44:10;100432.34;;;14.58;100.00
31082;BME280;17737;52.586;13.284;2023-08-08T04:46:38;100426.97;;;14.71;100.00
31082;BME280;17737;52.586;13.284;2023-08-08T04:49:07;100436.50;;;15.08;100.00
31082;BME280;17737;52.586;13.284;2023-08-08T04:51:36;100437.97;;;15.17;100.00
31082;BME280;17737;52.586;13.284;2023-08-08T04:54:04;100439.94;;;14.82;100.00
31082;BME280;17737;52.586;13.284;2023-08-08T04:56:32;100443.06;;;14.79;100.00
31082;BME280;17737;52.586;13.284;2023-08-08T04:59:00;100441.97;;;14.61;100.00
31082;BME280;17737;52.586;13.284;2023-08-08T05:01:28;100444.56;;;14.41;100.00
31082;BME280;17737;52.586;13.284;2023-08-08T05:03:56;100435.94;;;14.31;100.00
31082;BME280;17737;52.586;13.284;2023-08-08T05:06:25;100439.13;;;14.41;100.00
31082;BME280;17737;52.586;13.284;2023-08-08T05:08:53;100441.00;;;14.40;100.00
31082;BME280;17737;52.586;13.284;2023-08-08T05:11:23;100440.47;;;14.58;100.00
31082;BME280;17737;52.586;13.284;2023-08-08T05:13:51;100435.91;;;14.65;100.00
31082;BME280;17737;52.586;13.284;2023-08-08T05:16:19;100429.66;;;14.65;100.00
31082;BME280;17737;52.586;13.284;2023-08-08T05:18:47;100440.53;;;14.71;100.00
31082;BME280;17737;52.586;13.284;2023-08-08T05:21:15;100439.22;;;15.14;100.00
31082;BME280;17737;52.586;13.284;2023-08-08T05:23:44;100431.94;;;15.21;100.00
31082;BME280;17737;52.586;13.284;2023-08-08T05:26:13;100433.97;;;15.00;100.00
31082;BME280;17737;52.586;13.284;2023-08-08T05:28:42;100440.41;;;14.92;100.00
31082;BME280;17737;52.586;13.284;2023-08-08T05:31:10;100437.91;;;14.91;100.00
31082;BME280;17737;52.586;13.284;2023-08-08T05:33:38;100442.78;;;15.21;100.00
31082;BME280;17737;52.586;13.284;2023-08-08T05:36:06;100439.94;;;15.42;100.00
31082;BME280;17737;52.586;13.284;2023-08-08T05:38:34;100432.84;;;15.74;100.00
31082;BME280;17737;52.586;13.284;2023-08-08T05:41:04;100441.41;;;15.71;100.00
31082;BME280;17737;52.586;13.284;2023-08-08T05:43:32;100432.44;;;15.71;100.00
31082;BME280;17737;52.586;13.284;2023-08-08T05:46:00;100435.75;;;15.86;100.00
31082;BME280;17737;52.586;13.284;2023-08-08T05:48:28;100426.56;;;15.61;100.00
31082;BME280;17737;52.586;13.284;2023-08-08T05:50:56;100433.00;;;15.33;100.00
31082;BME280;17737;52.586;13.284;2023-08-08T05:53:25;100440.72;;;15.30;100.00
31082;BME280;17737;52.586;13.284;2023-08-08T05:55:53;100441.94;;;15.14;100.00
31082;BME280;17737;52.586;13.284;2023-08-08T05:58:23;100441.13;;;15.33;100.00
31082;BME280;17737;52.586;13.284;2023-08-08T06:00:52;100444.22;;;15.24;100.00
31082;BME280;17737;52.586;13.284;2023-08-08T06:03:20;100449.09;;;15.41;100.00
31082;BME280;17737;52.586;13.284;2023-08-08T06:05:48;100443.44;;;15.36;100.00
31082;BME280;17737;52.586;13.284;2023-08-08T06:08:16;100444.56;;;15.81;100.00
31082;BME280;17737;52.586;13.284;2023-08-08T06:10:44;100439.94;;;15.95;100.00
31082;BME280;17737;52.586;13.284;2023-08-08T06:13:12;100441.38;;;16.17;100.00
31082;BME280;17737;52.586;13.284;2023-08-08T06:15:41;100434.06;;;16.17;100.00
31082;BME280;17737;52.586;13.284;2023-08-08T06:18:09;100440.34;;;16.11;100.00
31082;BME280;17737;52.586;13.284;2023-08-08T06:20:37;100427.00;;;15.97;100.00
31082;BME280;17737;52.586;13.284;2023-08-08T06:23:06;100431.59;;;15.83;100.00
31082;BME280;17737;52.586;13.284;2023-08-08T06:25:34;100422.38;;;16.04;100.00
31082;BME280;17737;52.586;13.284;2023-08-08T06:28:02;100437.81;;;16.23;100.00
31082;BME280;17737;52.586;13.284;2023-08-08T06:30:30;100426.88;;;16.42;100.00
31082;BME280;17737;52.586;13.284;2023-08-08T06:33:00;100431.50;;;16.35;100.00
31082;BME280;17737;52.586;13.284;2023-08-08T06:35:28;100433.38;;;16.35;100.00
31082;BME280;17737;52.586;13.284;2023-08-08T06:37:56;100439.88;;;16.34;100.00
31082;BME280;17737;52.586;13.284;2023-08-08T06:40:24;100446.00;;;16.03;100.00
31082;BME280;17737;52.586;13.284;2023-08-08T06:42:52;100439.09;;;15.94;100.00
31082;BME280;17737;52.586;13.284;2023-08-08T06:45:21;100445.19;;;15.90;100.00
31082;BME280;17737;52.586;13.284;2023-08-08T06:47:49;100446.22;;;15.76;100.00
31082;BME280;17737;52.586;13.284;2023-08-08T06:50:19;100442.03;;;15.80;100.00
31082;BME280;17737;52.586;13.284;2023-08-08T06:52:47;100451.84;;;16.13;100.00
31082;BME280;17737;52.586;13.284;2023-08-08T06:55:15;100457.28;;;16.07;100.00
31082;BME280;17737;52.586;13.284;2023-08-08T06:57:43;100458.09;;;16.27;100.00
31082;BME280;17737;52.586;13.284;2023-08-08T07:00:12;100452.44;;;16.22;100.00
31082;BME280;17737;52.586;13.284;2023-08-08T07:02:42;100454.53;;;16.46;100.00
31082;BME280;17737;52.586;13.284;2023-08-08T07:05:10;100452.03;;;16.25;100.00
31082;BME280;17737;52.586;13.284;2023-08-08T07:07:40;100451.81;;;16.26;100.00
31082;BME280;17737;52.586;13.284;2023-08-08T07:10:08;100443.13;;;16.68;100.00
31082;BME280;17737;52.586;13.284;2023-08-08T07:12:38;100441.88;;;17.15;100.00
31082;BME280;17737;52.586;13.284;2023-08-08T07:15:07;100440.72;;;16.98;100.00
31082;BME280;17737;52.586;13.284;2023-08-08T07:17:37;100441.59;;;16.92;100.00
31082;BME280;17737;52.586;13.284;2023-08-08T07:20:06;100435.03;;;17.00;100.00
31082;BME280;17737;52.586;13.284;2023-08-08T07:22:36;100442.25;;;16.81;100.00
31082;BME280;17737;52.586;13.284;2023-08-08T07:25:07;100440.28;;;17.01;100.00
31082;BME280;17737;52.586;13.284;2023-08-08T07:27:35;100438.97;;;17.10;100.00
31082;BME280;17737;52.586;13.284;2023-08-08T07:30:04;100438.78;;;17.05;100.00
31082;BME280;17737;52.586;13.284;2023-08-08T07:32:33;100437.84;;;17.24;100.00
31082;BME280;17737;52.586;13.284;2023-08-08T07:35:02;100430.22;;;17.02;100.00
31082;BME280;17737;52.586;13.284;2023-08-08T07:37:32;100439.91;;;16.91;100.00
31082;BME280;17737;52.586;13.284;2023-08-08T07:40:00;100442.63;;;16.91;100.00
31082;BME280;17737;52.586;13.284;2023-08-08T07:42:29;100443.19;;;17.06;100.00
31082;BME280;17737;52.586;13.284;2023-08-08T07:44:57;100440.81;;;17.23;100.00
31082;BME280;17737;52.586;13.284;2023-08-08T07:47:25;100427.00;;;17.18;100.00
31082;BME280;17737;52.586;13.284;2023-08-08T07:49:53;100431.22;;;17.14;100.00
31082;BME280;17737;52.586;13.284;2023-08-08T07:52:21;100431.16;;;17.20;100.00
31082;BME280;17737;52.586;13.284;2023-08-08T07:54:50;100432.50;;;17.42;100.00
31082;BME280;17737;52.586;13.284;2023-08-08T07:57:18;100431.53;;;17.30;100.00
31082;BME280;17737;52.586;13.284;2023-08-08T07:59:47;100428.84;;;17.24;100.00
31082;BME280;17737;52.586;13.284;2023-08-08T08:02:15;100435.81;;;17.13;100.00
31082;BME280;17737;52.586;13.284;2023-08-08T08:04:43;100436.44;;;17.53;100.00
31082;BME280;17737;52.586;13.284;2023-08-08T08:07:11;100432.78;;;17.90;100.00
31082;BME280;17737;52.586;13.284;2023-08-08T08:09:39;100431.69;;;18.16;100.00
31082;BME280;17737;52.586;13.284;2023-08-08T08:12:08;100423.97;;;18.55;100.00
31082;BME280;17737;52.586;13.284;2023-08-08T08:14:36;100421.34;;;18.42;100.00
31082;BME280;17737;52.586;13.284;2023-08-08T08:17:06;100427.44;;;17.77;100.00
31082;BME280;17737;52.586;13.284;2023-08-08T08:19:35;100426.22;;;17.98;100.00
31082;BME280;17737;52.586;13.284;2023-08-08T08:22:03;100437.16;;;17.66;100.00
31082;BME280;17737;52.586;13.284;2023-08-08T08:24:31;100428.16;;;17.66;100.00
31082;BME280;17737;52.586;13.284;2023-08-08T08:26:59;100430.81;;;17.72;100.00
31082;BME280;17737;52.586;13.284;2023-08-08T08:29:28;100424.94;;;17.75;100.00
31082;BME280;17737;52.586;13.284;2023-08-08T08:31:57;100426.31;;;18.27;100.00
31082;BME280;17737;52.586;13.284;2023-08-08T08:34:27;100423.50;;;18.34;100.00
31082;BME280;17737;52.586;13.284;2023-08-08T08:36:55;100435.41;;;18.21;100.00
31082;BME280;17737;52.586;13.284;2023-08-08T08:39:23;100423.16;;;18.30;100.00
31082;BME280;17737;52.586;13.284;2023-08-08T08:41:58;100427.53;;;18.13;100.00
31082;BME280;17737;52.586;13.284;2023-08-08T08:44:31;100423.03;;;18.01;100.00
31082;BME280;17737;52.586;13.284;2023-08-08T08:47:01;100429.38;;;17.94;100.00
31082;BME280;17737;52.586;13.284;2023-08-08T08:49:34;100416.09;;;18.23;100.00
31082;BME280;17737;52.586;13.284;2023-08-08T08:52:04;100427.56;;;18.07;100.00
31082;BME280;17737;52.586;13.284;2023-08-08T08:54:32;100421.47;;;18.11;100.00
31082;BME280;17737;52.586;13.284;2023-08-08T08:57:02;100418.13;;;18.27;100.00
31082;BME280;17737;52.586;13.284;2023-08-08T08:59:31;100424.94;;;18.61;100.00
31082;BME280;17737;52.586;13.284;2023-08-08T09:01:59;100424.50;;;18.93;100.00
31082;BME280;17737;52.586;13.284;2023-08-08T09:04:29;100425.91;;;18.48;100.00
31082;BME280;17737;52.586;13.284;2023-08-08T09:06:58;100423.22;;;18.78;100.00
31082;BME280;17737;52.586;13.284;2023-08-08T09:09:31;100423.69;;;18.75;100.00
31082;BME280;17737;52.586;13.284;2023-08-08T09:12:00;100423.31;;;18.89;100.00
31082;BME280;17737;52.586;13.284;2023-08-08T09:14:31;100409.25;;;19.04;100.00
31082;BME280;17737;52.586;13.284;2023-08-08T09:16:59;100407.88;;;19.13;100.00
31082;BME280;17737;52.586;13.284;2023-08-08T09:19:29;100413.41;;;18.59;100.00
31082;BME280;17737;52.586;13.284;2023-08-08T09:21:58;100411.41;;;18.30;100.00
31082;BME280;17737;52.586;13.284;2023-08-08T09:24:26;100410.97;;;18.51;100.00
31082;BME280;17737;52.586;13.284;2023-08-08T09:26:54;100407.72;;;18.60;100.00
31082;BME280;17737;52.586;13.284;2023-08-08T09:29:23;100400.22;;;18.74;100.00
31082;BME280;17737;52.586;13.284;2023-08-08T09:31:51;100399.13;;;18.75;100.00
31082;BME280;17737;52.586;13.284;2023-08-08T09:34:24;100402.59;;;18.52;100.00
31082;BME280;17737;52.586;13.284;2023-08-08T09:36:53;100403.22;;;18.84;100.00
31082;BME280;17737;52.586;13.284;2023-08-08T09:39:22;100394.06;;;19.08;100.00
31082;BME280;17737;52.586;13.284;2023-08-08T09:41:51;100392.06;;;19.45;100.00
31082;BME280;17737;52.586;13.284;2023-08-08T09:44:23;100392.25;;;19.84;100.00
31082;BME280;17737;52.586;13.284;2023-08-08T09:46:52;100370.56;;;19.48;100.00
31082;BME280;17737;52.586;13.284;2023-08-08T09:49:21;100391.50;;;18.95;100.00
31082;BME280;17737;52.586;13.284;2023-08-08T09:51:50;100395.69;;;18.25;100.00
31082;BME280;17737;52.586;13.284;2023-08-08T09:54:19;100414.09;;;16.62;100.00
31082;BME280;17737;52.586;13.284;2023-08-08T09:56:51;100414.81;;;16.19;100.00
31082;BME280;17737;52.586;13.284;2023-08-08T09:59:20;100411.44;;;16.30;100.00
31082;BME280;17737;52.586;13.284;2023-08-08T10:01:48;100416.47;;;16.26;100.00
31082;BME280;17737;52.586;13.284;2023-08-08T10:04:18;100418.28;;;16.45;100.00
31082;BME280;17737;52.586;13.284;2023-08-08T10:06:46;100407.38;;;17.03;100.00
31082;BME280;17737;52.586;13.284;2023-08-08T10:09:17;100398.78;;;17.43;100.00
31082;BME280;17737;52.586;13.284;2023-08-08T10:11:46;100400.19;;;17.52;100.00
31082;BME280;17737;52.586;13.284;2023-08-08T10:14:17;100388.13;;;17.35;100.00
31082;BME280;17737;52.586;13.284;2023-08-08T10:16:47;100377.00;;;17.37;100.00
31082;BME280;17737;52.586;13.284;2023-08-08T10:19:21;100384.47;;;17.79;100.00
31082;BME280;17737;52.586;13.284;2023-08-08T10:21:56;100387.06;;;18.10;100.00
31082;BME280;17737;52.586;13.284;2023-08-08T10:24:26;100377.03;;;18.47;100.00
31082;BME280;17737;52.586;13.284;2023-08-08T10:27:00;100375.22;;;18.59;100.00
31082;BME280;17737;52.586;13.284;2023-08-08T10:29:31;100365.19;;;18.53;100.00
31082;BME280;17737;52.586;13.284;2023-08-08T10:32:03;100363.16;;;18.96;100.00
31082;BME280;17737;52.586;13.284;2023-08-08T10:34:42;100356.66;;;19.38;100.00
31082;BME280;17737;52.586;13.284;2023-08-08T10:37:12;100355.56;;;18.98;100.00
31082;BME280;17737;52.586;13.284;2023-08-08T10:39:50;100393.91;;;17.76;100.00
31082;BME280;17737;52.586;13.284;2023-08-08T10:42:21;100411.19;;;16.57;100.00
31082;BME280;17737;52.586;13.284;2023-08-08T10:44:53;100407.44;;;16.39;100.00
31082;BME280;17737;52.586;13.284;2023-08-08T10:47:26;100405.97;;;16.56;100.00
31082;BME280;17737;52.586;13.284;2023-08-08T10:50:04;100389.13;;;16.72;100.00
31082;BME280;17737;52.586;13.284;2023-08-08T10:52:38;100391.91;;;17.03;100.00
31082;BME280;17737;52.586;13.284;2023-08-08T10:55:22;100383.50;;;17.67;100.00
31082;BME280;17737;52.586;13.284;2023-08-08T10:57:55;100393.19;;;17.87;100.00
31082;BME280;17737;52.586;13.284;2023-08-08T11:00:28;100371.47;;;17.99;100.00
31082;BME280;17737;52.586;13.284;2023-08-08T11:02:59;100372.63;;;18.10;100.00
31082;BME280;17737;52.586;13.284;2023-08-08T11:05:29;100375.22;;;18.41;100.00
31082;BME280;17737;52.586;13.284;2023-08-08T11:07:58;100368.06;;;18.58;100.00
31082;BME280;17737;52.586;13.284;2023-08-08T11:10:28;100367.56;;;18.49;100.00
31082;BME280;17737;52.586;13.284;2023-08-08T11:13:00;100361.38;;;18.72;100.00
31082;BME280;17737;52.586;13.284;2023-08-08T11:15:31;100365.66;;;19.27;100.00
31082;BME280;17737;52.586;13.284;2023-08-08T11:18:01;100364.03;;;19.08;100.00
31082;BME280;17737;52.586;13.284;2023-08-08T11:20:31;100360.09;;;19.04;100.00
31082;BME280;17737;52.586;13.284;2023-08-08T11:23:00;100361.91;;;19.10;100.00
31082;BME280;17737;52.586;13.284;2023-08-08T11:25:30;100354.97;;;18.96;100.00
31082;BME280;17737;52.586;13.284;2023-08-08T11:27:59;100366.13;;;18.94;100.00
31082;BME280;17737;52.586;13.284;2023-08-08T11:30:28;100372.59;;;18.82;100.00
31082;BME280;17737;52.586;13.284;2023-08-08T11:32:59;100383.75;;;19.10;100.00
31082;BME280;17737;52.586;13.284;2023-08-08T11:35:31;100375.19;;;19.06;100.00
31082;BME280;17737;52.586;13.284;2023-08-08T11:38:01;100374.09;;;18.78;100.00
31082;BME280;17737;52.586;13.284;2023-08-08T11:40:31;100363.50;;;18.70;100.00
31082;BME280;17737;52.586;13.284;2023-08-08T11:43:00;100373.44;;;18.82;100.00
31082;BME280;17737;52.586;13.284;2023-08-08T11:45:28;100364.41;;;19.12;100.00
31082;BME280;17737;52.586;13.284;2023-08-08T11:47:56;100373.47;;;18.94;100.00
31082;BME280;17737;52.586;13.284;2023-08-08T11:50:26;100366.75;;;18.78;100.00
31082;BME280;17737;52.586;13.284;2023-08-08T11:52:55;100353.34;;;18.77;100.00
31082;BME280;17737;52.586;13.284;2023-08-08T11:55:27;100361.38;;;18.72;100.00
31082;BME280;17737;52.586;13.284;2023-08-08T11:57:56;100361.78;;;19.05;100.00
31082;BME280;17737;52.586;13.284;2023-08-08T12:00:28;100350.84;;;19.05;100.00
31082;BME280;17737;52.586;13.284;2023-08-08T12:02:58;100352.72;;;19.34;100.00
31082;BME280;17737;52.586;13.284;2023-08-08T12:05:36;100354.31;;;19.65;100.00
31082;BME280;17737;52.586;13.284;2023-08-08T12:08:05;100346.22;;;19.58;100.00
31082;BME280;17737;52.586;13.284;2023-08-08T12:10:34;100351.00;;;19.22;100.00
31082;BME280;17737;52.586;13.284;2023-08-08T12:13:02;100341.34;;;19.49;100.00
31082;BME280;17737;52.586;13.284;2023-08-08T12:15:32;100336.59;;;19.79;100.00
31082;BME280;17737;52.586;13.284;2023-08-08T12:18:02;100342.81;;;20.20;100.00
31082;BME280;17737;52.586;13.284;2023-08-08T12:20:32;100342.97;;;20.42;100.00
31082;BME280;17737;52.586;13.284;2023-08-08T12:23:00;100334.59;;;20.60;100.00
31082;BME280;17737;52.586;13.284;2023-08-08T12:25:28;100344.63;;;20.83;100.00
31082;BME280;17737;52.586;13.284;2023-08-08T12:27:57;100337.75;;;21.25;100.00
31082;BME280;17737;52.586;13.284;2023-08-08T12:30:24;100326.84;;;21.42;100.00
31082;BME280;17737;52.586;13.284;2023-08-08T12:32:52;100329.38;;;21.15;100.00
31082;BME280;17737;52.586;13.284;2023-08-08T12:35:21;100332.59;;;20.56;100.00
31082;BME280;17737;52.586;13.284;2023-08-08T12:37:50;100331.63;;;20.62;100.00
31082;BME280;17737;52.586;13.284;2023-08-08T12:40:18;100337.31;;;20.72;100.00